Terminal Aerodrome Forecast
Issued by NWS

Home | Current Version | Previous Version | Text Only | Print | Product List | Glossary On
Versions: 1 2 3 4 5 6 7 8 9 10 11 12 13 14 15 16 17
495
FTUS43 KLSX 181121
TAFSUS
TAF
KSUS 181121Z 1812/1912 10009KT P6SM BKN110
     FM181400 18011G20KT P6SM BKN060
     FM181500 23015G22KT P6SM BKN060
     FM181800 27021G33KT P6SM BKN050
     FM190200 30013G27KT P6SM BKN060
     FM191000 31010G16KT P6SM BKN020=

USA.gov is the U.S. government's official web portal to all federal, state and local government web resources and services.